Terminal Aerodrome Forecast
Issued by NWS

Home | Current Version | Previous Version | Text Only | Print | Product List | Glossary Off
Versions: 1 2 3 4 5 6 7 8 9 10 11 12 13 14 15 16 17 18 19

000
FTUS43 KABR 031100
TAFPIR
TAF
KPIR 031130Z 0312/0412 35029G42KT 2SM -SN OVC030
      TEMPO 0312/0315 1/2SM -SN BLSN VV010
     FM031500 33025G35KT 3SM BLSN OVC015
     FM032100 32017KT P6SM BKN040=

USA.gov is the U.S. government's official web portal to all federal, state and local government web resources and services.